Bookmark and Share
Track history (hours):
 

Wan Hai 501

Last reported at 2014-Apr-24 10:28 UTC. Time now 2014-Apr-24 11:10 UTC.
Position N 29°56' E 121°52'.

Length 269 m; draft 10.1 m.

Type: Cargo ship. MMSI: 563382000.

NotesDate/timePositionNaut miles runAvg speedWind from/ knotsBaromVisibWave heightAir tempDewpointWater temp
2014-Apr-24 10:28N 29°56' E 121°52'0 0.0
2014-Apr-24 09:31N 29°56' E 121°52'0 0.0
2014-Apr-24 08:28N 29°56' E 121°52'0 0.0
2014-Apr-24 07:28N 29°56' E 121°52'0 0.0
2014-Apr-24 06:31N 29°56' E 121°52'0 0.0
2014-Apr-24 05:31N 29°56' E 121°52'0 0.0
2014-Apr-24 04:31N 29°56' E 121°52'0 0.0
2014-Apr-24 03:25N 29°56' E 121°52'0 0.2
2014-Apr-24 02:33N 29°56' E 121°52'4 4.1
2014-Apr-24 01:34N 29°58' E 121°57'1212.0
2014-Apr-24 00:34N 29°55' E 122°10'1312.6
2014-Apr-23 23:33N 29°45' E 122°20'9 8.9
2014-Apr-23 22:33N 29°48' E 122°29'0 0.1
2014-Apr-23 21:29N 29°48' E 122°29'1 1.1
2014-Apr-23 20:33N 29°47' E 122°30'1212.1
2014-Apr-23 19:33N 29°55' E 122°41'1918.5
2014-Apr-23 18:33N 30°13' E 122°49'1918.8
2014-Apr-23 17:31N 30°31' E 122°55'2018.1
2014-Apr-23 16:25N 30°51' E 122°50'1719.4
2014-Apr-23 15:33N 31°05' E 122°40'1211.7
2014-Apr-23 14:33N 31°06' E 122°26'1711.3
2014-Apr-23 13:04N 31°12' E 122°08'713.2
2014-Apr-23 12:33N 31°15' E 122°00'1414.0
2014-Apr-23 11:32N 31°19' E 121°44'4 4.0
2014-Apr-23 10:32N 31°20' E 121°40'0 0.0
2014-Apr-23 09:20N 31°20' E 121°40'0 0.0
2014-Apr-23 08:26N 31°20' E 121°40'0 0.0
2014-Apr-23 06:14N 31°20' E 121°40'0 0.0
2014-Apr-23 05:20N 31°20' E 121°40'0 0.0
2014-Apr-23 04:20N 31°20' E 121°40'0 0.0
2014-Apr-23 00:32N 31°20' E 121°40'0 0.0
2014-Apr-22 23:32N 31°20' E 121°40'0 0.0
2014-Apr-22 22:26N 31°20' E 121°40'0 0.0
2014-Apr-22 21:26N 31°20' E 121°40'0 0.0
2014-Apr-22 20:14N 31°20' E 121°40'0 0.0
2014-Apr-22 19:32N 31°20' E 121°40'0 0.0
2014-Apr-22 18:26N 31°20' E 121°40'0 0.0
2014-Apr-22 17:32N 31°20' E 121°40'0 0.0
2014-Apr-22 16:08N 31°20' E 121°40'0 0.0
2014-Apr-22 15:26N 31°20' E 121°40'0 0.0
2014-Apr-22 13:20N 31°20' E 121°40'0 0.0
2014-Apr-22 12:26N 31°20' E 121°40'  
2014-Apr-15 21:28N 01°15' E 104°06'1314.8
2014-Apr-15 20:34N 01°12' E 103°53'9 9.2
2014-Apr-15 19:33N 01°17' E 103°45'1 1.2
2014-Apr-15 18:33N 01°17' E 103°46'0 0.0
2014-Apr-15 17:31N 01°17' E 103°46'0 0.0
2014-Apr-15 16:31N 01°17' E 103°46'0 0.0
2014-Apr-15 15:28N 01°17' E 103°46'0 0.0
2014-Apr-15 14:31N 01°17' E 103°46'0 0.0
2014-Apr-15 11:31N 01°17' E 103°46'0 0.0
2014-Apr-15 10:31N 01°17' E 103°46'0 0.0
2014-Apr-15 09:31N 01°17' E 103°46'0 0.0
2014-Apr-15 08:31N 01°17' E 103°46'0 0.0
2014-Apr-15 07:31N 01°17' E 103°46'0 0.0
2014-Apr-15 06:31N 01°17' E 103°46'0 0.0
2014-Apr-15 05:31N 01°17' E 103°46'0 0.0
2014-Apr-15 03:31N 01°17' E 103°46'0 0.0
2014-Apr-15 02:31N 01°17' E 103°46'0 0.0
2014-Apr-15 01:31N 01°17' E 103°46'0 0.0
2014-Apr-15 00:31N 01°17' E 103°46'0 0.0
2014-Apr-14 23:31N 01°17' E 103°46'1 1.5
2014-Apr-14 22:34N 01°16' E 103°46'5 5.1
2014-Apr-14 21:34N 01°13' E 103°41'9 8.5
2014-Apr-14 20:34N 01°11' E 103°33'3 3.3
2014-Apr-14 19:34N 01°10' E 103°30'3 2.6
2014-Apr-14 18:33N 01°10' E 103°27'4 4.0
2014-Apr-14 17:33N 01°12' E 103°24'4 4.1
2014-Apr-14 16:32N 01°15' E 103°21'2010.3
2014-Apr-14 14:33N 01°27' E 103°05'  

Dump ship's entire track history

sailing weather and tide predictions

Wan Hai 501 — S6AS7 — position and weather